sensor_id;sensor_type;location;lat;lon;timestamp;pressure;altitude;pressure_sealevel;temperature;humidity
57628;BME280;43451;49.060;10.616;2023-04-10T00:00:16;97449.38;;;0.43;100.00
57628;BME280;43451;49.060;10.616;2023-04-10T00:02:42;97438.13;;;0.55;100.00
57628;BME280;43451;49.060;10.616;2023-04-10T00:05:08;97442.16;;;0.83;100.00
57628;BME280;43451;49.060;10.616;2023-04-10T00:07:34;97434.94;;;0.84;100.00
57628;BME280;43451;49.060;10.616;2023-04-10T00:09:59;97444.84;;;0.83;100.00
57628;BME280;43451;49.060;10.616;2023-04-10T00:12:25;97437.84;;;0.65;100.00
57628;BME280;43451;49.060;10.616;2023-04-10T00:14:51;97438.59;;;0.57;100.00
57628;BME280;43451;49.060;10.616;2023-04-10T00:17:16;97435.56;;;0.50;100.00
57628;BME280;43451;49.060;10.616;2023-04-10T00:19:41;97427.22;;;0.42;100.00
57628;BME280;43451;49.060;10.616;2023-04-10T00:22:07;97427.59;;;0.58;100.00
57628;BME280;43451;49.060;10.616;2023-04-10T00:24:32;97419.75;;;0.62;100.00
57628;BME280;43451;49.060;10.616;2023-04-10T00:26:58;97414.19;;;0.50;100.00
57628;BME280;43451;49.060;10.616;2023-04-10T00:29:23;97414.50;;;0.48;100.00
57628;BME280;43451;49.060;10.616;2023-04-10T00:31:48;97413.00;;;0.64;100.00
57628;BME280;43451;49.060;10.616;2023-04-10T00:34:14;97408.34;;;0.87;100.00
57628;BME280;43451;49.060;10.616;2023-04-10T00:36:39;97412.88;;;0.78;100.00
57628;BME280;43451;49.060;10.616;2023-04-10T00:39:05;97405.44;;;0.66;100.00
57628;BME280;43451;49.060;10.616;2023-04-10T00:41:31;97402.41;;;0.51;100.00
57628;BME280;43451;49.060;10.616;2023-04-10T00:43:56;97406.78;;;0.46;100.00
57628;BME280;43451;49.060;10.616;2023-04-10T00:46:25;97410.41;;;0.51;100.00
57628;BME280;43451;49.060;10.616;2023-04-10T00:48:51;97403.66;;;0.44;100.00
57628;BME280;43451;49.060;10.616;2023-04-10T00:51:18;97401.28;;;0.43;100.00
57628;BME280;43451;49.060;10.616;2023-04-10T00:53:48;97404.59;;;0.49;100.00
57628;BME280;43451;49.060;10.616;2023-04-10T00:56:15;97404.44;;;0.45;100.00
57628;BME280;43451;49.060;10.616;2023-04-10T00:58:40;97409.78;;;0.45;100.00
57628;BME280;43451;49.060;10.616;2023-04-10T01:01:06;97403.28;;;0.37;100.00
57628;BME280;43451;49.060;10.616;2023-04-10T01:03:32;97406.56;;;0.34;100.00
57628;BME280;43451;49.060;10.616;2023-04-10T01:11:17;97391.44;;;0.21;100.00
57628;BME280;43451;49.060;10.616;2023-04-10T01:16:50;97387.25;;;0.06;100.00
57628;BME280;43451;49.060;10.616;2023-04-10T01:21:42;97376.69;;;-0.30;100.00
57628;BME280;43451;49.060;10.616;2023-04-10T01:29:17;97389.06;;;-0.34;100.00
57628;BME280;43451;49.060;10.616;2023-04-10T01:31:51;97387.72;;;-0.23;100.00
57628;BME280;43451;49.060;10.616;2023-04-10T01:34:20;97385.44;;;-0.16;100.00
57628;BME280;43451;49.060;10.616;2023-04-10T01:36:48;97396.09;;;-0.16;100.00
57628;BME280;43451;49.060;10.616;2023-04-10T01:39:18;97386.50;;;-0.17;100.00
57628;BME280;43451;49.060;10.616;2023-04-10T01:41:45;97392.59;;;-0.25;100.00
57628;BME280;43451;49.060;10.616;2023-04-10T01:44:11;97401.75;;;-0.17;100.00
57628;BME280;43451;49.060;10.616;2023-04-10T01:46:38;97392.25;;;-0.01;100.00
57628;BME280;43451;49.060;10.616;2023-04-10T01:49:04;97384.19;;;0.21;100.00
57628;BME280;43451;49.060;10.616;2023-04-10T01:51:30;97385.34;;;-0.02;100.00
57628;BME280;43451;49.060;10.616;2023-04-10T01:53:57;97386.25;;;-0.07;100.00
57628;BME280;43451;49.060;10.616;2023-04-10T01:56:22;97381.66;;;-0.15;100.00
57628;BME280;43451;49.060;10.616;2023-04-10T01:58:47;97383.34;;;0.04;100.00
57628;BME280;43451;49.060;10.616;2023-04-10T02:01:19;97383.13;;;-0.31;100.00
57628;BME280;43451;49.060;10.616;2023-04-10T02:03:46;97396.03;;;-0.47;100.00
57628;BME280;43451;49.060;10.616;2023-04-10T02:06:21;97387.34;;;-0.53;100.00
57628;BME280;43451;49.060;10.616;2023-04-10T02:11:20;97387.97;;;-0.56;100.00
57628;BME280;43451;49.060;10.616;2023-04-10T02:13:49;97385.84;;;-0.45;100.00
57628;BME280;43451;49.060;10.616;2023-04-10T02:16:15;97389.50;;;-0.41;100.00
57628;BME280;43451;49.060;10.616;2023-04-10T02:18:43;97384.59;;;-0.48;100.00
57628;BME280;43451;49.060;10.616;2023-04-10T02:21:10;97386.16;;;-0.47;100.00
57628;BME280;43451;49.060;10.616;2023-04-10T02:23:35;97388.22;;;-0.43;100.00
57628;BME280;43451;49.060;10.616;2023-04-10T02:26:07;97384.16;;;-0.41;100.00
57628;BME280;43451;49.060;10.616;2023-04-10T02:28:33;97386.50;;;-0.39;100.00
57628;BME280;43451;49.060;10.616;2023-04-10T02:30:58;97393.41;;;-0.38;100.00
57628;BME280;43451;49.060;10.616;2023-04-10T02:33:23;97395.81;;;-0.37;100.00
57628;BME280;43451;49.060;10.616;2023-04-10T02:35:49;97391.66;;;-0.20;100.00
57628;BME280;43451;49.060;10.616;2023-04-10T02:38:14;97395.63;;;-0.18;100.00
57628;BME280;43451;49.060;10.616;2023-04-10T02:40:40;97394.50;;;-0.17;100.00
57628;BME280;43451;49.060;10.616;2023-04-10T02:43:05;97406.34;;;-0.09;100.00
57628;BME280;43451;49.060;10.616;2023-04-10T02:45:30;97407.00;;;-0.04;100.00
57628;BME280;43451;49.060;10.616;2023-04-10T02:47:57;97406.41;;;-0.23;100.00
57628;BME280;43451;49.060;10.616;2023-04-10T02:50:22;97411.81;;;-0.37;100.00
57628;BME280;43451;49.060;10.616;2023-04-10T02:52:48;97415.59;;;-0.38;100.00
57628;BME280;43451;49.060;10.616;2023-04-10T02:55:13;97402.41;;;-0.34;100.00
57628;BME280;43451;49.060;10.616;2023-04-10T02:57:38;97404.34;;;-0.26;100.00
57628;BME280;43451;49.060;10.616;2023-04-10T03:00:04;97404.13;;;-0.16;100.00
57628;BME280;43451;49.060;10.616;2023-04-10T03:02:29;97396.16;;;-0.30;100.00
57628;BME280;43451;49.060;10.616;2023-04-10T03:04:55;97414.78;;;-0.38;100.00
57628;BME280;43451;49.060;10.616;2023-04-10T03:07:21;97392.44;;;-0.42;100.00
57628;BME280;43451;49.060;10.616;2023-04-10T03:09:46;97411.88;;;-0.51;100.00
57628;BME280;43451;49.060;10.616;2023-04-10T03:12:11;97403.78;;;-0.59;100.00
57628;BME280;43451;49.060;10.616;2023-04-10T03:14:37;97403.59;;;-0.63;100.00
57628;BME280;43451;49.060;10.616;2023-04-10T03:17:02;97398.28;;;-0.63;100.00
57628;BME280;43451;49.060;10.616;2023-04-10T03:19:27;97401.31;;;-0.33;100.00
57628;BME280;43451;49.060;10.616;2023-04-10T03:21:53;97403.03;;;-0.37;100.00
57628;BME280;43451;49.060;10.616;2023-04-10T03:24:18;97398.81;;;-0.30;100.00
57628;BME280;43451;49.060;10.616;2023-04-10T03:26:43;97396.03;;;-0.25;100.00
57628;BME280;43451;49.060;10.616;2023-04-10T03:29:09;97384.69;;;-0.30;100.00
57628;BME280;43451;49.060;10.616;2023-04-10T03:31:34;97391.91;;;-0.08;100.00
57628;BME280;43451;49.060;10.616;2023-04-10T03:33:59;97387.88;;;0.03;100.00
57628;BME280;43451;49.060;10.616;2023-04-10T03:36:25;97382.00;;;-0.08;100.00
57628;BME280;43451;49.060;10.616;2023-04-10T03:38:51;97373.91;;;-0.25;100.00
57628;BME280;43451;49.060;10.616;2023-04-10T03:41:16;97377.41;;;-0.38;100.00
57628;BME280;43451;49.060;10.616;2023-04-10T03:43:42;97372.91;;;-0.52;100.00
57628;BME280;43451;49.060;10.616;2023-04-10T03:46:07;97373.41;;;-0.27;100.00
57628;BME280;43451;49.060;10.616;2023-04-10T03:48:32;97366.25;;;-0.18;100.00
57628;BME280;43451;49.060;10.616;2023-04-10T03:50:58;97371.06;;;0.03;100.00
57628;BME280;43451;49.060;10.616;2023-04-10T03:53:23;97369.84;;;0.09;100.00
57628;BME280;43451;49.060;10.616;2023-04-10T03:55:49;97364.75;;;-0.02;100.00
57628;BME280;43451;49.060;10.616;2023-04-10T03:58:16;97367.69;;;-0.12;100.00
57628;BME280;43451;49.060;10.616;2023-04-10T04:00:41;97372.22;;;0.10;100.00
57628;BME280;43451;49.060;10.616;2023-04-10T04:03:07;97366.31;;;-0.01;100.00
57628;BME280;43451;49.060;10.616;2023-04-10T04:05:32;97374.00;;;-0.30;100.00
57628;BME280;43451;49.060;10.616;2023-04-10T04:07:57;97380.22;;;-0.43;100.00
57628;BME280;43451;49.060;10.616;2023-04-10T04:10:23;97383.41;;;-0.33;100.00
57628;BME280;43451;49.060;10.616;2023-04-10T04:12:48;97379.84;;;-0.28;100.00
57628;BME280;43451;49.060;10.616;2023-04-10T04:15:13;97382.81;;;-0.52;100.00
57628;BME280;43451;49.060;10.616;2023-04-10T04:17:39;97383.72;;;-0.57;100.00
57628;BME280;43451;49.060;10.616;2023-04-10T04:20:05;97376.63;;;-0.39;100.00
57628;BME280;43451;49.060;10.616;2023-04-10T04:22:30;97382.13;;;-0.58;100.00
57628;BME280;43451;49.060;10.616;2023-04-10T04:24:55;97388.31;;;-0.71;100.00
57628;BME280;43451;49.060;10.616;2023-04-10T04:27:21;97386.25;;;-0.74;100.00
57628;BME280;43451;49.060;10.616;2023-04-10T04:29:47;97395.94;;;-0.78;100.00
57628;BME280;43451;49.060;10.616;2023-04-10T04:32:12;97395.84;;;-0.87;100.00
57628;BME280;43451;49.060;10.616;2023-04-10T04:34:38;97384.50;;;-0.93;100.00
57628;BME280;43451;49.060;10.616;2023-04-10T04:37:03;97386.88;;;-0.91;100.00
57628;BME280;43451;49.060;10.616;2023-04-10T04:39:29;97385.91;;;-1.09;100.00
57628;BME280;43451;49.060;10.616;2023-04-10T04:41:55;97393.63;;;-1.07;100.00
57628;BME280;43451;49.060;10.616;2023-04-10T04:44:20;97403.00;;;-1.10;100.00
57628;BME280;43451;49.060;10.616;2023-04-10T04:46:46;97402.41;;;-1.07;100.00
57628;BME280;43451;49.060;10.616;2023-04-10T04:49:11;97397.97;;;-1.11;100.00
57628;BME280;43451;49.060;10.616;2023-04-10T04:51:36;97407.47;;;-1.19;100.00
57628;BME280;43451;49.060;10.616;2023-04-10T04:54:02;97408.25;;;-1.19;100.00
57628;BME280;43451;49.060;10.616;2023-04-10T04:56:28;97406.50;;;-1.23;100.00
57628;BME280;43451;49.060;10.616;2023-04-10T04:58:53;97406.78;;;-1.25;100.00
57628;BME280;43451;49.060;10.616;2023-04-10T05:01:18;97407.16;;;-1.18;100.00
57628;BME280;43451;49.060;10.616;2023-04-10T05:03:43;97411.22;;;-1.20;100.00
57628;BME280;43451;49.060;10.616;2023-04-10T05:06:09;97401.44;;;-1.11;100.00
57628;BME280;43451;49.060;10.616;2023-04-10T05:08:34;97406.88;;;-1.16;100.00
57628;BME280;43451;49.060;10.616;2023-04-10T05:10:59;97407.28;;;-1.23;100.00
57628;BME280;43451;49.060;10.616;2023-04-10T05:13:25;97404.50;;;-1.31;100.00
57628;BME280;43451;49.060;10.616;2023-04-10T05:15:51;97405.69;;;-1.24;100.00
57628;BME280;43451;49.060;10.616;2023-04-10T05:18:16;97403.41;;;-1.17;100.00
57628;BME280;43451;49.060;10.616;2023-04-10T05:20:44;97401.81;;;-1.04;100.00
57628;BME280;43451;49.060;10.616;2023-04-10T05:23:10;97398.94;;;-0.94;100.00
57628;BME280;43451;49.060;10.616;2023-04-10T05:25:35;97387.84;;;-0.87;100.00
57628;BME280;43451;49.060;10.616;2023-04-10T05:28:01;97384.09;;;-0.86;100.00
57628;BME280;43451;49.060;10.616;2023-04-10T05:30:26;97382.53;;;-0.87;100.00
57628;BME280;43451;49.060;10.616;2023-04-10T05:32:52;97383.19;;;-0.81;100.00
57628;BME280;43451;49.060;10.616;2023-04-10T05:35:17;97381.63;;;-0.82;100.00
57628;BME280;43451;49.060;10.616;2023-04-10T05:37:42;97389.41;;;-0.72;100.00
57628;BME280;43451;49.060;10.616;2023-04-10T05:40:08;97382.25;;;-0.63;100.00
57628;BME280;43451;49.060;10.616;2023-04-10T05:42:33;97385.97;;;-0.50;100.00
57628;BME280;43451;49.060;10.616;2023-04-10T05:44:58;97387.13;;;-0.42;100.00
57628;BME280;43451;49.060;10.616;2023-04-10T05:47:24;97388.16;;;-0.30;100.00
57628;BME280;43451;49.060;10.616;2023-04-10T05:49:49;97388.56;;;-0.14;100.00
57628;BME280;43451;49.060;10.616;2023-04-10T05:52:14;97399.66;;;0.02;100.00
57628;BME280;43451;49.060;10.616;2023-04-10T05:54:39;97397.88;;;0.20;100.00
57628;BME280;43451;49.060;10.616;2023-04-10T05:57:05;97399.44;;;0.52;100.00
57628;BME280;43451;49.060;10.616;2023-04-10T05:59:30;97399.50;;;0.78;100.00
57628;BME280;43451;49.060;10.616;2023-04-10T06:01:56;97396.06;;;0.95;100.00
57628;BME280;43451;49.060;10.616;2023-04-10T06:04:21;97398.78;;;1.04;100.00
57628;BME280;43451;49.060;10.616;2023-04-10T06:06:47;97395.97;;;1.09;100.00
57628;BME280;43451;49.060;10.616;2023-04-10T06:09:12;97394.25;;;1.22;100.00
57628;BME280;43451;49.060;10.616;2023-04-10T06:11:37;97390.16;;;1.33;100.00
57628;BME280;43451;49.060;10.616;2023-04-10T06:14:03;97381.97;;;1.47;100.00
57628;BME280;43451;49.060;10.616;2023-04-10T06:16:28;97378.50;;;1.63;100.00
57628;BME280;43451;49.060;10.616;2023-04-10T06:18:54;97385.59;;;1.68;100.00
57628;BME280;43451;49.060;10.616;2023-04-10T06:21:19;97376.75;;;1.94;100.00
57628;BME280;43451;49.060;10.616;2023-04-10T06:23:44;97378.25;;;2.12;100.00
57628;BME280;43451;49.060;10.616;2023-04-10T06:26:10;97380.00;;;2.17;100.00
57628;BME280;43451;49.060;10.616;2023-04-10T06:28:36;97375.56;;;2.21;100.00
57628;BME280;43451;49.060;10.616;2023-04-10T06:31:01;97377.56;;;2.32;100.00
57628;BME280;43451;49.060;10.616;2023-04-10T06:33:29;97378.56;;;2.58;100.00
57628;BME280;43451;49.060;10.616;2023-04-10T06:35:55;97383.78;;;2.92;100.00
57628;BME280;43451;49.060;10.616;2023-04-10T06:38:21;97371.22;;;3.26;100.00
57628;BME280;43451;49.060;10.616;2023-04-10T06:40:46;97377.75;;;3.58;100.00
57628;BME280;43451;49.060;10.616;2023-04-10T06:43:12;97374.75;;;3.93;100.00
57628;BME280;43451;49.060;10.616;2023-04-10T06:45:37;97371.22;;;4.13;100.00
57628;BME280;43451;49.060;10.616;2023-04-10T06:48:03;97366.31;;;4.28;100.00
57628;BME280;43451;49.060;10.616;2023-04-10T06:50:28;97373.53;;;4.48;100.00
57628;BME280;43451;49.060;10.616;2023-04-10T06:52:53;97373.31;;;4.65;100.00
57628;BME280;43451;49.060;10.616;2023-04-10T06:55:20;97378.69;;;4.90;100.00
57628;BME280;43451;49.060;10.616;2023-04-10T06:57:46;97379.38;;;4.99;100.00
57628;BME280;43451;49.060;10.616;2023-04-10T07:00:11;97371.69;;;5.26;100.00
57628;BME280;43451;49.060;10.616;2023-04-10T07:02:36;97374.91;;;5.44;100.00
57628;BME280;43451;49.060;10.616;2023-04-10T07:05:02;97382.59;;;5.57;100.00
57628;BME280;43451;49.060;10.616;2023-04-10T07:07:27;97373.50;;;5.62;100.00
57628;BME280;43451;49.060;10.616;2023-04-10T07:09:53;97372.25;;;6.00;100.00
57628;BME280;43451;49.060;10.616;2023-04-10T07:12:18;97370.44;;;5.92;100.00
57628;BME280;43451;49.060;10.616;2023-04-10T07:14:43;97371.59;;;5.91;100.00
57628;BME280;43451;49.060;10.616;2023-04-10T07:17:09;97366.06;;;5.99;100.00
57628;BME280;43451;49.060;10.616;2023-04-10T07:19:34;97368.44;;;6.17;100.00
57628;BME280;43451;49.060;10.616;2023-04-10T07:22:00;97353.31;;;6.44;100.00
57628;BME280;43451;49.060;10.616;2023-04-10T07:24:25;97355.50;;;6.70;100.00
57628;BME280;43451;49.060;10.616;2023-04-10T07:26:52;97364.78;;;6.88;100.00
57628;BME280;43451;49.060;10.616;2023-04-10T07:29:17;97362.63;;;7.13;100.00
57628;BME280;43451;49.060;10.616;2023-04-10T07:31:43;97358.63;;;7.42;99.08
57628;BME280;43451;49.060;10.616;2023-04-10T07:34:09;97356.66;;;7.59;94.74
57628;BME280;43451;49.060;10.616;2023-04-10T07:36:34;97354.84;;;7.86;89.59
57628;BME280;43451;49.060;10.616;2023-04-10T07:39:00;97353.47;;;7.96;90.05
57628;BME280;43451;49.060;10.616;2023-04-10T07:41:26;97351.03;;;8.10;89.55
57628;BME280;43451;49.060;10.616;2023-04-10T07:43:51;97346.19;;;8.19;85.54
57628;BME280;43451;49.060;10.616;2023-04-10T07:46:16;97348.78;;;8.35;86.32
57628;BME280;43451;49.060;10.616;2023-04-10T07:48:42;97343.88;;;8.41;83.07
57628;BME280;43451;49.060;10.616;2023-04-10T07:51:08;97350.47;;;8.43;84.86
57628;BME280;43451;49.060;10.616;2023-04-10T07:53:34;97337.72;;;8.67;83.55
57628;BME280;43451;49.060;10.616;2023-04-10T07:56:00;97352.53;;;8.73;85.28
57628;BME280;43451;49.060;10.616;2023-04-10T07:58:25;97350.41;;;8.86;81.70
57628;BME280;43451;49.060;10.616;2023-04-10T08:00:50;97347.41;;;8.94;79.52
57628;BME280;43451;49.060;10.616;2023-04-10T08:03:16;97348.78;;;9.07;76.82
57628;BME280;43451;49.060;10.616;2023-04-10T08:05:41;97351.50;;;9.07;75.46
57628;BME280;43451;49.060;10.616;2023-04-10T08:08:07;97351.94;;;9.13;70.78
57628;BME280;43451;49.060;10.616;2023-04-10T08:10:32;97344.97;;;9.12;74.08
57628;BME280;43451;49.060;10.616;2023-04-10T08:12:59;97349.31;;;9.17;71.89
57628;BME280;43451;49.060;10.616;2023-04-10T08:15:25;97340.47;;;9.23;73.71
57628;BME280;43451;49.060;10.616;2023-04-10T08:17:50;97349.44;;;9.27;72.66
57628;BME280;43451;49.060;10.616;2023-04-10T08:20:15;97341.94;;;9.47;69.09
57628;BME280;43451;49.060;10.616;2023-04-10T08:22:41;97342.63;;;9.41;67.29
57628;BME280;43451;49.060;10.616;2023-04-10T08:25:06;97344.59;;;9.44;70.92
57628;BME280;43451;49.060;10.616;2023-04-10T08:27:32;97342.97;;;9.69;63.74
57628;BME280;43451;49.060;10.616;2023-04-10T08:29:57;97344.53;;;9.70;67.98
57628;BME280;43451;49.060;10.616;2023-04-10T08:32:23;97338.38;;;9.73;65.79
57628;BME280;43451;49.060;10.616;2023-04-10T08:34:50;97348.47;;;9.76;66.59
57628;BME280;43451;49.060;10.616;2023-04-10T08:37:15;97341.56;;;9.83;67.59
57628;BME280;43451;49.060;10.616;2023-04-10T08:39:41;97342.16;;;9.99;65.35
57628;BME280;43451;49.060;10.616;2023-04-10T08:42:06;97346.88;;;10.06;68.18
57628;BME280;43451;49.060;10.616;2023-04-10T08:44:32;97338.13;;;10.23;66.14
57628;BME280;43451;49.060;10.616;2023-04-10T08:46:57;97337.84;;;10.32;63.03
57628;BME280;43451;49.060;10.616;2023-04-10T08:49:23;97342.19;;;10.40;63.77
57628;BME280;43451;49.060;10.616;2023-04-10T08:51:55;97338.00;;;10.50;62.57
57628;BME280;43451;49.060;10.616;2023-04-10T08:54:27;97334.50;;;10.49;62.41
57628;BME280;43451;49.060;10.616;2023-04-10T08:56:53;97329.16;;;10.56;62.92
57628;BME280;43451;49.060;10.616;2023-04-10T08:59:20;97336.94;;;10.61;60.64
57628;BME280;43451;49.060;10.616;2023-04-10T09:01:46;97334.69;;;10.71;61.58
57628;BME280;43451;49.060;10.616;2023-04-10T09:04:12;97316.13;;;10.83;60.80
57628;BME280;43451;49.060;10.616;2023-04-10T09:06:37;97324.41;;;10.98;63.93
57628;BME280;43451;49.060;10.616;2023-04-10T09:09:06;97329.75;;;10.90;60.64
57628;BME280;43451;49.060;10.616;2023-04-10T09:14:22;97323.25;;;11.02;59.26
57628;BME280;43451;49.060;10.616;2023-04-10T09:16:48;97315.81;;;10.92;58.88
57628;BME280;43451;49.060;10.616;2023-04-10T09:19:28;97318.50;;;10.85;60.21
57628;BME280;43451;49.060;10.616;2023-04-10T09:21:53;97319.72;;;10.98;58.90
57628;BME280;43451;49.060;10.616;2023-04-10T09:24:19;97313.09;;;10.96;59.06
57628;BME280;43451;49.060;10.616;2023-04-10T09:26:44;97311.91;;;10.93;57.42
57628;BME280;43451;49.060;10.616;2023-04-10T09:29:10;97301.50;;;11.02;60.15
57628;BME280;43451;49.060;10.616;2023-04-10T09:31:36;97311.97;;;11.00;58.50
57628;BME280;43451;49.060;10.616;2023-04-10T09:34:06;97313.59;;;11.15;59.17
57628;BME280;43451;49.060;10.616;2023-04-10T09:36:32;97304.78;;;11.36;56.91
57628;BME280;43451;49.060;10.616;2023-04-10T09:38:57;97309.13;;;11.48;56.83
57628;BME280;43451;49.060;10.616;2023-04-10T09:41:22;97301.72;;;11.49;56.38
57628;BME280;43451;49.060;10.616;2023-04-10T09:43:48;97305.66;;;11.55;56.37
57628;BME280;43451;49.060;10.616;2023-04-10T09:46:18;97296.72;;;11.58;54.72
57628;BME280;43451;49.060;10.616;2023-04-10T09:48:55;97296.66;;;11.51;55.92
57628;BME280;43451;49.060;10.616;2023-04-10T09:51:27;97290.88;;;11.67;54.53
57628;BME280;43451;49.060;10.616;2023-04-10T09:53:54;97287.78;;;11.61;54.12
57628;BME280;43451;49.060;10.616;2023-04-10T09:56:19;97281.59;;;11.75;54.18
57628;BME280;43451;49.060;10.616;2023-04-10T09:58:45;97278.50;;;11.80;55.56
57628;BME280;43451;49.060;10.616;2023-04-10T10:01:11;97269.16;;;11.81;52.66
57628;BME280;43451;49.060;10.616;2023-04-10T10:03:37;97257.53;;;11.91;53.68
57628;BME280;43451;49.060;10.616;2023-04-10T10:06:02;97260.59;;;11.82;54.68
57628;BME280;43451;49.060;10.616;2023-04-10T10:08:29;97252.09;;;11.98;54.22
57628;BME280;43451;49.060;10.616;2023-04-10T10:10:56;97251.72;;;12.18;53.67
57628;BME280;43451;49.060;10.616;2023-04-10T10:13:23;97242.00;;;12.17;54.09
57628;BME280;43451;49.060;10.616;2023-04-10T10:18:24;97233.44;;;12.07;51.19
57628;BME280;43451;49.060;10.616;2023-04-10T10:20:51;97227.19;;;12.18;52.04
57628;BME280;43451;49.060;10.616;2023-04-10T10:23:17;97227.22;;;12.28;51.97
57628;BME280;43451;49.060;10.616;2023-04-10T10:25:43;97225.63;;;12.52;52.79
57628;BME280;43451;49.060;10.616;2023-04-10T10:28:09;97219.41;;;12.55;50.23
57628;BME280;43451;49.060;10.616;2023-04-10T10:30:36;97226.03;;;12.51;51.38
57628;BME280;43451;49.060;10.616;2023-04-10T10:33:04;97227.97;;;12.72;50.45
57628;BME280;43451;49.060;10.616;2023-04-10T10:35:30;97222.13;;;12.63;49.98
57628;BME280;43451;49.060;10.616;2023-04-10T10:37:59;97225.22;;;12.72;50.79
57628;BME280;43451;49.060;10.616;2023-04-10T10:46:15;97205.72;;;12.77;51.50
57628;BME280;43451;49.060;10.616;2023-04-10T10:48:20;97202.97;;;12.81;49.96
57628;BME280;43451;49.060;10.616;2023-04-10T10:50:53;97207.72;;;12.66;47.43
57628;BME280;43451;49.060;10.616;2023-04-10T10:53:34;97199.50;;;12.73;48.89
57628;BME280;43451;49.060;10.616;2023-04-10T10:58:47;97192.34;;;13.15;50.32
57628;BME280;43451;49.060;10.616;2023-04-10T11:01:13;97195.88;;;13.12;49.58
57628;BME280;43451;49.060;10.616;2023-04-10T11:03:39;97192.69;;;13.38;47.48
57628;BME280;43451;49.060;10.616;2023-04-10T11:06:08;97188.75;;;13.39;49.48
57628;BME280;43451;49.060;10.616;2023-04-10T11:08:34;97187.97;;;13.42;49.25
57628;BME280;43451;49.060;10.616;2023-04-10T11:11:01;97188.41;;;13.34;45.94
57628;BME280;43451;49.060;10.616;2023-04-10T11:13:27;97172.28;;;13.54;48.79
57628;BME280;43451;49.060;10.616;2023-04-10T11:15:53;97171.47;;;13.60;47.95
57628;BME280;43451;49.060;10.616;2023-04-10T11:18:50;97165.66;;;13.58;50.31
57628;BME280;43451;49.060;10.616;2023-04-10T11:21:09;97164.47;;;13.56;49.63
57628;BME280;43451;49.060;10.616;2023-04-10T11:23:36;97161.78;;;13.52;47.03
57628;BME280;43451;49.060;10.616;2023-04-10T11:26:02;97150.41;;;13.57;46.35
57628;BME280;43451;49.060;10.616;2023-04-10T11:33:38;97151.84;;;13.80;47.29
57628;BME280;43451;49.060;10.616;2023-04-10T11:36:03;97153.16;;;14.09;50.20
57628;BME280;43451;49.060;10.616;2023-04-10T11:38:29;97142.19;;;14.13;47.64
57628;BME280;43451;49.060;10.616;2023-04-10T11:40:55;97140.19;;;14.17;48.41
57628;BME280;43451;49.060;10.616;2023-04-10T11:43:21;97143.13;;;14.40;49.06
57628;BME280;43451;49.060;10.616;2023-04-10T11:45:46;97141.06;;;14.48;47.79
57628;BME280;43451;49.060;10.616;2023-04-10T11:48:12;97147.31;;;14.49;43.93
57628;BME280;43451;49.060;10.616;2023-04-10T11:50:38;97141.25;;;14.30;45.19
57628;BME280;43451;49.060;10.616;2023-04-10T11:53:16;97137.88;;;14.57;46.94
57628;BME280;43451;49.060;10.616;2023-04-10T11:55:41;97131.03;;;14.38;45.94
57628;BME280;43451;49.060;10.616;2023-04-10T11:58:28;97124.09;;;14.26;46.01
57628;BME280;43451;49.060;10.616;2023-04-10T12:00:59;97121.59;;;14.46;45.71
57628;BME280;43451;49.060;10.616;2023-04-10T12:03:37;97121.19;;;14.44;46.39
57628;BME280;43451;49.060;10.616;2023-04-10T12:06:08;97119.63;;;14.47;44.67
57628;BME280;43451;49.060;10.616;2023-04-10T12:08:35;97123.31;;;14.67;45.08
57628;BME280;43451;49.060;10.616;2023-04-10T12:11:01;97124.50;;;14.66;43.75
57628;BME280;43451;49.060;10.616;2023-04-10T12:13:30;97120.00;;;14.45;43.02
57628;BME280;43451;49.060;10.616;2023-04-10T12:15:59;97120.81;;;14.42;42.51
57628;BME280;43451;49.060;10.616;2023-04-10T12:18:26;97111.50;;;14.36;44.36
57628;BME280;43451;49.060;10.616;2023-04-10T12:20:51;97110.00;;;14.31;45.73
57628;BME280;43451;49.060;10.616;2023-04-10T12:23:21;97112.41;;;14.26;44.17
57628;BME280;43451;49.060;10.616;2023-04-10T12:25:46;97101.38;;;14.33;45.56
57628;BME280;43451;49.060;10.616;2023-04-10T12:28:21;97107.44;;;14.55;44.42
57628;BME280;43451;49.060;10.616;2023-04-10T12:30:50;97100.84;;;14.83;43.08
57628;BME280;43451;49.060;10.616;2023-04-10T12:33:22;97097.44;;;14.37;39.52
57628;BME280;43451;49.060;10.616;2023-04-10T12:35:48;97098.75;;;14.26;39.34
57628;BME280;43451;49.060;10.616;2023-04-10T12:38:13;97094.25;;;14.43;41.23
57628;BME280;43451;49.060;10.616;2023-04-10T12:41:00;97090.09;;;14.69;43.75
57628;BME280;43451;49.060;10.616;2023-04-10T12:43:35;97086.03;;;14.80;44.72
57628;BME280;43451;49.060;10.616;2023-04-10T12:46:01;97089.81;;;14.90;45.18
57628;BME280;43451;49.060;10.616;2023-04-10T12:48:27;97077.19;;;14.69;42.79
57628;BME280;43451;49.060;10.616;2023-04-10T12:50:53;97078.00;;;14.97;44.21
57628;BME280;43451;49.060;10.616;2023-04-10T12:53:19;97076.72;;;15.05;41.82
57628;BME280;43451;49.060;10.616;2023-04-10T12:58:25;97079.47;;;15.05;44.31
57628;BME280;43451;49.060;10.616;2023-04-10T13:00:55;97075.75;;;14.92;42.59
57628;BME280;43451;49.060;10.616;2023-04-10T13:03:21;97065.94;;;14.94;39.47
57628;BME280;43451;49.060;10.616;2023-04-10T13:05:46;97062.50;;;14.86;39.40
57628;BME280;43451;49.060;10.616;2023-04-10T13:08:12;97070.88;;;15.03;42.63
57628;BME280;43451;49.060;10.616;2023-04-10T13:10:37;97053.50;;;15.17;40.55
57628;BME280;43451;49.060;10.616;2023-04-10T13:13:03;97053.66;;;15.33;38.43
57628;BME280;43451;49.060;10.616;2023-04-10T13:15:30;97050.91;;;15.06;39.54
57628;BME280;43451;49.060;10.616;2023-04-10T13:17:58;97043.63;;;14.96;40.93
57628;BME280;43451;49.060;10.616;2023-04-10T13:20:23;97038.78;;;15.07;40.44
57628;BME280;43451;49.060;10.616;2023-04-10T13:22:49;97026.66;;;15.08;41.51